Skip Navigation Links Skip Navigation Links

Current Weather

Trenton Mercer, Trenton, N.J.

For information only: do not use for flight planning or navigation.
Latest weather
Observation time Thursday, November 21, 2019 4:53 PM EST
Local time Thursday, November 21, 2019 5:29 PM EST
Flight conditions Visual Meteorological Conditions
Winds
Wind direction South (180°)
Wind speed 3 mph
Visibility 10 mi.
Sky condition
Ceiling unlimited
Sky clear
Temperature 49°F
Dewpoint 33°F
Altimeter 30.10 in.Hg
Derived measurements
Relative humidity 54%
Wind chill 48°F
Density altitude -565 ft.
Sea-level pressure 30.09 in.Hg
Remarks
Automated weather observing station with precipitation discriminator.
METAR KTTN 212153Z 18003KT 10SM CLR 09/01 A3010 RMK AO2 SLP188 T00940006

Settings

Location code

InnerDrive.Weather 4.0.6770.0 Release CLR 4.0.30319.42000
Copyright ©2018 Inner Drive Technology. All rights reserved. Portions Copyright ©1986-2018 David Braverman.

Find weather

Site navigation


Skip Navigation Links

Place info

Page info

PayPal - The safer, easier way to pay online!

Return home.

Copyright ©2019 Inner Drive Technology. Purveyors of fine, hand-crafted computer software. Page printed 2019-11-21T22:29:43 UTC.